JST1UB EDDH-EDDF
Flight info
| Callsign | JST1UB |
|---|---|
| Flight time | N/A |
| Altitude | 30000 |
| Route | AMLUH2G/33 AMLUH M852 DENIX DCT RIMET/N0447F310 T157 KOKEB/N0402F230 T157 KERAX KERAX5A |
| Aircraft | A320/M-SDE3FGHIRWY/LB1 |
Departure
| Time | 2026-04-24 18:55 |
|---|---|
| Airport | Hamburg Helmut Schmidt Airport (EDDH) |
Arrival
| Time | N/A |
|---|---|
| Airport | Frankfurt Main Airport (EDDF) |
| Time | Latitude | Longitude | Altitude | Speed | Heading |
|---|---|---|---|---|---|
| 2026-04-24 18:54 | 53.40396 | 10.33377 | 16307 ft | 392 kts | 167° |
| 2026-04-24 18:55 | 53.35048 | 10.35782 | 17569 ft | 399 kts | 167° |
| 2026-04-24 18:55 | 53.32353 | 10.36989 | 18232 ft | 402 kts | 167° |
| 2026-04-24 18:55 | 53.29638 | 10.38203 | 18837 ft | 405 kts | 167° |
| 2026-04-24 18:56 | 53.26930 | 10.39412 | 19421 ft | 408 kts | 168° |
| 2026-04-24 18:56 | 53.24177 | 10.40638 | 20029 ft | 411 kts | 168° |
| 2026-04-24 18:56 | 53.21402 | 10.41875 | 20652 ft | 414 kts | 168° |
| 2026-04-24 18:56 | 53.18609 | 10.43123 | 21228 ft | 417 kts | 168° |
| 2026-04-24 18:57 | 53.15796 | 10.44382 | 21803 ft | 419 kts | 169° |
| 2026-04-24 18:57 | 53.12930 | 10.45252 | 22317 ft | 418 kts | 179° |
| 2026-04-24 18:57 | 53.10027 | 10.45311 | 22862 ft | 416 kts | 188° |
| 2026-04-24 18:57 | 53.07137 | 10.44899 | 23401 ft | 418 kts | 189° |
| 2026-04-24 18:58 | 53.04227 | 10.44489 | 23894 ft | 421 kts | 189° |
| 2026-04-24 18:58 | 53.01302 | 10.44086 | 24090 ft | 421 kts | 189° |
| 2026-04-24 18:58 | 52.98381 | 10.43687 | 24146 ft | 421 kts | 189° |
| 2026-04-24 18:58 | 52.95458 | 10.43289 | 24147 ft | 421 kts | 189° |
| 2026-04-24 18:59 | 52.92536 | 10.42894 | 24148 ft | 421 kts | 189° |
| 2026-04-24 18:59 | 52.89613 | 10.42504 | 24147 ft | 421 kts | 189° |
| 2026-04-24 18:59 | 52.86726 | 10.42117 | 24153 ft | 421 kts | 189° |
| 2026-04-24 18:59 | 52.83804 | 10.41721 | 24152 ft | 421 kts | 189° |
| 2026-04-24 19:00 | 52.80882 | 10.41323 | 24153 ft | 420 kts | 189° |
| 2026-04-24 19:00 | 52.77958 | 10.40923 | 24151 ft | 420 kts | 189° |
| 2026-04-24 19:00 | 52.75046 | 10.40524 | 24157 ft | 421 kts | 189° |
| 2026-04-24 19:00 | 52.72125 | 10.40128 | 24158 ft | 421 kts | 189° |
| 2026-04-24 19:01 | 52.69192 | 10.39733 | 24279 ft | 424 kts | 189° |
| 2026-04-24 19:01 | 52.66251 | 10.39335 | 24772 ft | 425 kts | 189° |
| 2026-04-24 19:01 | 52.63292 | 10.38933 | 25221 ft | 427 kts | 189° |
| 2026-04-24 19:01 | 52.60325 | 10.38529 | 25649 ft | 429 kts | 189° |
| 2026-04-24 19:02 | 52.58353 | 10.38262 | 25930 ft | 430 kts | 189° |
| 2026-04-24 19:02 | 52.54387 | 10.37729 | 26460 ft | 432 kts | 189° |
| 2026-04-24 19:02 | 52.51384 | 10.37327 | 26892 ft | 433 kts | 189° |
| 2026-04-24 19:02 | 52.48373 | 10.36926 | 27306 ft | 435 kts | 190° |
| 2026-04-24 19:03 | 52.45345 | 10.36521 | 27713 ft | 437 kts | 190° |
| 2026-04-24 19:03 | 52.42297 | 10.36116 | 28108 ft | 439 kts | 190° |
| 2026-04-24 19:03 | 52.39247 | 10.35712 | 28503 ft | 441 kts | 190° |
| 2026-04-24 19:03 | 52.36173 | 10.35306 | 28902 ft | 443 kts | 190° |
| 2026-04-24 19:04 | 52.34139 | 10.35037 | 29097 ft | 444 kts | 190° |
| 2026-04-24 19:04 | 52.27973 | 10.34231 | 29164 ft | 444 kts | 191° |
| 2026-04-24 19:05 | 52.21818 | 10.33417 | 29162 ft | 443 kts | 191° |
| 2026-04-24 19:05 | 52.15665 | 10.32593 | 29173 ft | 443 kts | 191° |
| 2026-04-24 19:06 | 52.09514 | 10.31763 | 29155 ft | 438 kts | 191° |
| 2026-04-24 19:06 | 52.03558 | 10.31005 | 29153 ft | 425 kts | 191° |
| 2026-04-24 19:07 | 51.97712 | 10.30241 | 29149 ft | 423 kts | 191° |
| 2026-04-24 19:07 | 51.91837 | 10.29462 | 29152 ft | 424 kts | 191° |
| 2026-04-24 19:08 | 51.86031 | 10.28014 | 29155 ft | 405 kts | 209° |
| 2026-04-24 19:08 | 51.83679 | 10.25745 | 29152 ft | 388 kts | 223° |
| 2026-04-24 19:08 | 51.81605 | 10.23056 | 29147 ft | 385 kts | 224° |
| 2026-04-24 19:09 | 51.77460 | 10.17558 | 29154 ft | 385 kts | 224° |
| 2026-04-24 19:09 | 51.73317 | 10.12060 | 29155 ft | 385 kts | 224° |
| 2026-04-24 19:09 | 51.71101 | 10.09582 | 29126 ft | 393 kts | 212° |
| 2026-04-24 19:10 | 51.68473 | 10.08188 | 28668 ft | 404 kts | 193° |
| 2026-04-24 19:10 | 51.65641 | 10.08303 | 28206 ft | 415 kts | 174° |
| 2026-04-24 19:10 | 51.62826 | 10.09452 | 27760 ft | 417 kts | 171° |
| 2026-04-24 19:10 | 51.60024 | 10.10660 | 27300 ft | 415 kts | 170° |
| 2026-04-24 19:11 | 51.57250 | 10.11858 | 26862 ft | 412 kts | 170° |
| 2026-04-24 19:11 | 51.54486 | 10.13051 | 26422 ft | 410 kts | 170° |
| 2026-04-24 19:11 | 51.51764 | 10.14218 | 26012 ft | 408 kts | 170° |
| 2026-04-24 19:11 | 51.49026 | 10.15380 | 25594 ft | 406 kts | 170° |
| 2026-04-24 19:12 | 51.46279 | 10.16326 | 25231 ft | 396 kts | 181° |
| 2026-04-24 19:12 | 51.43626 | 10.15962 | 25124 ft | 372 kts | 201° |
| 2026-04-24 19:12 | 51.41376 | 10.14244 | 25151 ft | 350 kts | 222° |
| 2026-04-24 19:12 | 51.39753 | 10.11451 | 25155 ft | 338 kts | 243° |
| 2026-04-24 19:13 | 51.39119 | 10.09196 | 25154 ft | 333 kts | 257° |
| 2026-04-24 19:13 | 51.38911 | 10.04313 | 25157 ft | 330 kts | 274° |
| 2026-04-24 19:13 | 51.39055 | 10.00641 | 25156 ft | 330 kts | 274° |
| 2026-04-24 19:13 | 51.39214 | 9.96972 | 25161 ft | 330 kts | 275° |
| 2026-04-24 19:14 | 51.39733 | 9.93413 | 25155 ft | 331 kts | 294° |
| 2026-04-24 19:14 | 51.41058 | 9.90453 | 25159 ft | 336 kts | 315° |
| 2026-04-24 19:14 | 51.43058 | 9.88457 | 25159 ft | 346 kts | 335° |
| 2026-04-24 19:14 | 51.45458 | 9.87782 | 25160 ft | 358 kts | 356° |
| 2026-04-24 19:15 | 51.47936 | 9.88574 | 25161 ft | 371 kts | 18° |
| 2026-04-24 19:15 | 51.50264 | 9.90440 | 25158 ft | 376 kts | 24° |
| 2026-04-24 19:15 | 51.52553 | 9.92473 | 25161 ft | 376 kts | 24° |
| 2026-04-24 19:15 | 51.54803 | 9.94687 | 25156 ft | 381 kts | 34° |
| 2026-04-24 19:16 | 51.57706 | 10.01846 | 25156 ft | 396 kts | 75° |
| 2026-04-24 19:16 | 51.57917 | 10.06255 | 25155 ft | 398 kts | 96° |
| 2026-04-24 19:16 | 51.57208 | 10.10519 | 25156 ft | 396 kts | 118° |
| 2026-04-24 19:17 | 51.55698 | 10.14095 | 25154 ft | 390 kts | 138° |
| 2026-04-24 19:17 | 51.53562 | 10.16682 | 25155 ft | 383 kts | 158° |
| 2026-04-24 19:17 | 51.51075 | 10.18028 | 25156 ft | 374 kts | 176° |
| 2026-04-24 19:17 | 51.48497 | 10.18636 | 25152 ft | 374 kts | 177° |
| 2026-04-24 19:18 | 51.45918 | 10.19208 | 25154 ft | 374 kts | 177° |
| 2026-04-24 19:18 | 51.43318 | 10.19773 | 25155 ft | 374 kts | 177° |
| 2026-04-24 19:18 | 51.40750 | 10.20327 | 25156 ft | 374 kts | 177° |
| 2026-04-24 19:18 | 51.38170 | 10.20889 | 25155 ft | 374 kts | 177° |
| 2026-04-24 19:19 | 51.35587 | 10.21455 | 25140 ft | 374 kts | 177° |
| 2026-04-24 19:19 | 51.32997 | 10.21877 | 25112 ft | 372 kts | 182° |
| 2026-04-24 19:19 | 51.30414 | 10.21939 | 24854 ft | 371 kts | 181° |
| 2026-04-24 19:19 | 51.27913 | 10.22832 | 24597 ft | 378 kts | 162° |
| 2026-04-24 19:20 | 51.25503 | 10.24556 | 24341 ft | 379 kts | 159° |
| 2026-04-24 19:20 | 51.23122 | 10.26356 | 24087 ft | 378 kts | 158° |
| 2026-04-24 19:20 | 51.20740 | 10.28159 | 23842 ft | 377 kts | 158° |
| 2026-04-24 19:20 | 51.18367 | 10.29949 | 23561 ft | 376 kts | 158° |
| 2026-04-24 19:21 | 51.16007 | 10.31725 | 23248 ft | 374 kts | 158° |
| 2026-04-24 19:21 | 51.13657 | 10.33492 | 22951 ft | 372 kts | 158° |
| 2026-04-24 19:21 | 51.11258 | 10.34938 | 22642 ft | 364 kts | 172° |
| 2026-04-24 19:21 | 51.08779 | 10.35220 | 22352 ft | 354 kts | 190° |
| 2026-04-24 19:22 | 51.07191 | 10.34754 | 22159 ft | 347 kts | 202° |
| 2026-04-24 19:22 | 51.04398 | 10.32418 | 21783 ft | 335 kts | 223° |
| 2026-04-24 19:22 | 51.02631 | 10.30080 | 21507 ft | 334 kts | 224° |
| 2026-04-24 19:22 | 51.00852 | 10.27716 | 21227 ft | 333 kts | 224° |
| 2026-04-24 19:23 | 50.99076 | 10.25362 | 20950 ft | 332 kts | 224° |
| 2026-04-24 19:23 | 50.97309 | 10.23022 | 20675 ft | 330 kts | 224° |
| 2026-04-24 19:23 | 50.95546 | 10.20691 | 20403 ft | 329 kts | 223° |
| 2026-04-24 19:23 | 50.93789 | 10.18374 | 20084 ft | 328 kts | 223° |
| 2026-04-24 19:24 | 50.92038 | 10.16070 | 19773 ft | 326 kts | 223° |
| 2026-04-24 19:24 | 50.90293 | 10.13773 | 19462 ft | 325 kts | 223° |
| 2026-04-24 19:24 | 50.88557 | 10.11492 | 19145 ft | 324 kts | 223° |
| 2026-04-24 19:24 | 50.86824 | 10.09219 | 18840 ft | 323 kts | 223° |
| 2026-04-24 19:25 | 50.85092 | 10.06949 | 18547 ft | 322 kts | 223° |
| 2026-04-24 19:25 | 50.83374 | 10.04694 | 18205 ft | 321 kts | 223° |
| 2026-04-24 19:25 | 50.81657 | 10.02445 | 17857 ft | 319 kts | 223° |
| 2026-04-24 19:25 | 50.79950 | 10.00215 | 17515 ft | 317 kts | 223° |
| 2026-04-24 19:26 | 50.78276 | 9.98035 | 17180 ft | 314 kts | 222° |
| 2026-04-24 19:26 | 50.76595 | 9.95851 | 16846 ft | 311 kts | 222° |
| 2026-04-24 19:26 | 50.74925 | 9.93682 | 16513 ft | 309 kts | 222° |
| 2026-04-24 19:26 | 50.73273 | 9.91535 | 16175 ft | 307 kts | 222° |
| 2026-04-24 19:27 | 50.71633 | 9.89398 | 15867 ft | 305 kts | 222° |
| 2026-04-24 19:27 | 50.70002 | 9.87268 | 15547 ft | 303 kts | 222° |
| 2026-04-24 19:27 | 50.68383 | 9.85158 | 15230 ft | 302 kts | 222° |
| 2026-04-24 19:27 | 50.66763 | 9.83052 | 14909 ft | 300 kts | 222° |
| 2026-04-24 19:28 | 50.65158 | 9.80959 | 14598 ft | 299 kts | 222° |
| 2026-04-24 19:28 | 50.63560 | 9.78878 | 14290 ft | 297 kts | 222° |
| 2026-04-24 19:28 | 50.61967 | 9.76819 | 13985 ft | 296 kts | 221° |
| 2026-04-24 19:28 | 50.60377 | 9.74768 | 13641 ft | 295 kts | 221° |
| 2026-04-24 19:29 | 50.57214 | 9.70698 | 12969 ft | 292 kts | 221° |
| 2026-04-24 19:29 | 50.55663 | 9.68699 | 12639 ft | 291 kts | 221° |
| 2026-04-24 19:29 | 50.54079 | 9.66655 | 12306 ft | 290 kts | 221° |
| 2026-04-24 19:30 | 50.52520 | 9.64649 | 11980 ft | 289 kts | 221° |
| 2026-04-24 19:30 | 50.50980 | 9.62668 | 11654 ft | 289 kts | 221° |
| 2026-04-24 19:30 | 50.49425 | 9.60679 | 11339 ft | 288 kts | 220° |
| 2026-04-24 19:30 | 50.47808 | 9.58820 | 11009 ft | 288 kts | 217° |
| 2026-04-24 19:31 | 50.46044 | 9.57350 | 10697 ft | 288 kts | 204° |
| 2026-04-24 19:31 | 50.44191 | 9.56136 | 10383 ft | 288 kts | 204° |
| 2026-04-24 19:31 | 50.42351 | 9.54951 | 10179 ft | 283 kts | 201° |
| 2026-04-24 19:31 | 50.40507 | 9.54031 | 10169 ft | 272 kts | 195° |
| 2026-04-24 19:32 | 50.38663 | 9.53424 | 10164 ft | 270 kts | 189° |
| 2026-04-24 19:32 | 50.36793 | 9.53096 | 10168 ft | 270 kts | 184° |
| 2026-04-24 19:32 | 50.34922 | 9.53066 | 10167 ft | 270 kts | 178° |
| 2026-04-24 19:32 | 50.33049 | 9.53329 | 10174 ft | 270 kts | 172° |
| 2026-04-24 19:33 | 50.31196 | 9.53764 | 10174 ft | 270 kts | 171° |
| 2026-04-24 19:33 | 50.29336 | 9.54196 | 10164 ft | 270 kts | 172° |
| 2026-04-24 19:33 | 50.27476 | 9.54627 | 10062 ft | 270 kts | 171° |
| 2026-04-24 19:33 | 50.25625 | 9.55055 | 9933 ft | 269 kts | 171° |
| 2026-04-24 19:34 | 50.23779 | 9.55482 | 9799 ft | 268 kts | 172° |
| 2026-04-24 19:34 | 50.21939 | 9.55903 | 9666 ft | 267 kts | 172° |
| 2026-04-24 19:34 | 50.20103 | 9.56324 | 9531 ft | 266 kts | 172° |
| 2026-04-24 19:34 | 50.18272 | 9.56741 | 9398 ft | 266 kts | 172° |
| 2026-04-24 19:35 | 50.16469 | 9.57155 | 9263 ft | 265 kts | 172° |
| 2026-04-24 19:35 | 50.14636 | 9.57569 | 9127 ft | 265 kts | 174° |
| 2026-04-24 19:35 | 50.12800 | 9.57703 | 9009 ft | 264 kts | 182° |
| 2026-04-24 19:35 | 50.10979 | 9.57401 | 8872 ft | 263 kts | 192° |
| 2026-04-24 19:36 | 50.09221 | 9.56673 | 8749 ft | 258 kts | 201° |
| 2026-04-24 19:36 | 50.07602 | 9.55587 | 8608 ft | 248 kts | 209° |
| 2026-04-24 19:36 | 50.06157 | 9.54218 | 8491 ft | 239 kts | 218° |
| 2026-04-24 19:36 | 50.04873 | 9.52600 | 8370 ft | 236 kts | 225° |
| 2026-04-24 19:37 | 50.03755 | 9.50760 | 8229 ft | 233 kts | 233° |
| 2026-04-24 19:37 | 50.02808 | 9.48717 | 8107 ft | 231 kts | 240° |
| 2026-04-24 19:37 | 50.02049 | 9.46528 | 7989 ft | 230 kts | 248° |
| 2026-04-24 19:37 | 50.01480 | 9.44245 | 7856 ft | 228 kts | 253° |
| 2026-04-24 19:38 | 50.00939 | 9.41887 | 7738 ft | 228 kts | 252° |
| 2026-04-24 19:38 | 50.00402 | 9.39605 | 7615 ft | 228 kts | 249° |
| 2026-04-24 19:38 | 49.99482 | 9.37587 | 7491 ft | 230 kts | 227° |
| 2026-04-24 19:38 | 49.98329 | 9.35854 | 7368 ft | 231 kts | 224° |
| 2026-04-24 19:39 | 49.97149 | 9.34166 | 7260 ft | 231 kts | 224° |
| 2026-04-24 19:39 | 49.95966 | 9.32485 | 7162 ft | 230 kts | 224° |
| 2026-04-24 19:39 | 49.94787 | 9.30809 | 7160 ft | 230 kts | 224° |
| 2026-04-24 19:39 | 49.93701 | 9.29005 | 7154 ft | 227 kts | 243° |
| 2026-04-24 19:40 | 49.93066 | 9.26767 | 7161 ft | 227 kts | 252° |
| 2026-04-24 19:40 | 49.92552 | 9.24456 | 7160 ft | 226 kts | 253° |
| 2026-04-24 19:40 | 49.92056 | 9.22140 | 7159 ft | 226 kts | 254° |
| 2026-04-24 19:40 | 49.91561 | 9.19817 | 7150 ft | 227 kts | 254° |
| 2026-04-24 19:41 | 49.91063 | 9.17474 | 6893 ft | 227 kts | 254° |
| 2026-04-24 19:41 | 49.90622 | 9.15143 | 6648 ft | 223 kts | 266° |
| 2026-04-24 19:41 | 49.90857 | 9.12838 | 6400 ft | 215 kts | 297° |
| 2026-04-24 19:41 | 49.91558 | 9.10823 | 6151 ft | 214 kts | 303° |
| 2026-04-24 19:42 | 49.92341 | 9.08861 | 5890 ft | 214 kts | 303° |
| 2026-04-24 19:42 | 49.93143 | 9.06911 | 5632 ft | 214 kts | 304° |
| 2026-04-24 19:42 | 49.93947 | 9.04976 | 5384 ft | 213 kts | 304° |
| 2026-04-24 19:42 | 49.94753 | 9.03046 | 5135 ft | 212 kts | 303° |
| 2026-04-24 19:43 | 49.95557 | 9.01138 | 5018 ft | 212 kts | 304° |
| 2026-04-24 19:43 | 49.96373 | 8.99220 | 5004 ft | 213 kts | 304° |
| 2026-04-24 19:43 | 49.96955 | 8.97990 | 5002 ft | 213 kts | 316° |
| 2026-04-24 19:43 | 49.98727 | 8.96854 | 5003 ft | 211 kts | 3° |
| 2026-04-24 19:44 | 50.00078 | 8.97589 | 5007 ft | 212 kts | 38° |
| 2026-04-24 19:44 | 50.00938 | 8.99432 | 5010 ft | 214 kts | 67° |
| 2026-04-24 19:44 | 50.01414 | 9.01643 | 5010 ft | 216 kts | 73° |
| 2026-04-24 19:44 | 50.01689 | 9.03131 | 5011 ft | 216 kts | 73° |
| 2026-04-24 19:45 | 50.02087 | 9.05386 | 5008 ft | 216 kts | 73° |
| 2026-04-24 19:45 | 50.02480 | 9.07650 | 5008 ft | 216 kts | 74° |
| 2026-04-24 19:45 | 50.02874 | 9.09912 | 5006 ft | 216 kts | 74° |
| 2026-04-24 19:45 | 50.03472 | 9.12048 | 4917 ft | 217 kts | 57° |
| 2026-04-24 19:46 | 50.04294 | 9.13998 | 4717 ft | 214 kts | 54° |
| 2026-04-24 19:46 | 50.05133 | 9.15898 | 4517 ft | 213 kts | 53° |
| 2026-04-24 19:46 | 50.05959 | 9.17808 | 4307 ft | 212 kts | 53° |
| 2026-04-24 19:46 | 50.06770 | 9.19715 | 4116 ft | 210 kts | 52° |
| 2026-04-24 19:47 | 50.07818 | 9.21209 | 4009 ft | 204 kts | 20° |
| 2026-04-24 19:47 | 50.09188 | 9.21417 | 4009 ft | 200 kts | 344° |
| 2026-04-24 19:47 | 50.10347 | 9.20277 | 4008 ft | 201 kts | 308° |
| 2026-04-24 19:47 | 50.11030 | 9.18359 | 4010 ft | 204 kts | 296° |
| 2026-04-24 19:48 | 50.11585 | 9.16312 | 4002 ft | 206 kts | 294° |
| 2026-04-24 19:48 | 50.12130 | 9.14230 | 4013 ft | 207 kts | 294° |
| 2026-04-24 19:48 | 50.13251 | 9.09922 | 4012 ft | 226 kts | 291° |
| 2026-04-24 19:49 | 50.13719 | 9.05086 | 4010 ft | 233 kts | 262° |
| 2026-04-24 19:49 | 50.13144 | 9.00379 | 4005 ft | 209 kts | 261° |
| 2026-04-24 19:50 | 50.12331 | 8.94153 | 4005 ft | 192 kts | 255° |
| 2026-04-24 19:50 | 50.11913 | 8.92185 | 4012 ft | 192 kts | 253° |
| 2026-04-24 19:51 | 50.11006 | 8.88265 | 4005 ft | 190 kts | 252° |
| 2026-04-24 19:51 | 50.10560 | 8.86368 | 3980 ft | 184 kts | 252° |
| 2026-04-24 19:52 | 50.09684 | 8.82642 | 3586 ft | 182 kts | 253° |
| 2026-04-24 19:52 | 50.09253 | 8.80812 | 3352 ft | 180 kts | 253° |
| 2026-04-24 19:52 | 50.08829 | 8.79016 | 3121 ft | 178 kts | 253° |
| 2026-04-24 19:52 | 50.08408 | 8.77233 | 2910 ft | 174 kts | 253° |
| 2026-04-24 19:53 | 50.07988 | 8.75454 | 2636 ft | 173 kts | 253° |
| 2026-04-24 19:53 | 50.07582 | 8.73740 | 2408 ft | 164 kts | 253° |
| 2026-04-24 19:53 | 50.06844 | 8.70622 | 2008 ft | 147 kts | 254° |
| 2026-04-24 19:54 | 50.06492 | 8.69135 | 1805 ft | 145 kts | 254° |
| 2026-04-24 19:54 | 50.06144 | 8.67667 | 1609 ft | 143 kts | 253° |
| 2026-04-24 19:54 | 50.05799 | 8.66212 | 1415 ft | 143 kts | 253° |
| 2026-04-24 19:54 | 50.05456 | 8.64766 | 1225 ft | 141 kts | 253° |
| 2026-04-24 19:55 | 50.05231 | 8.63821 | 1095 ft | 140 kts | 253° |
| 2026-04-24 19:55 | 50.04764 | 8.61852 | 839 ft | 139 kts | 253° |
| 2026-04-24 19:55 | 50.04447 | 8.60506 | 676 ft | 139 kts | 253° |
| 2026-04-24 19:55 | 50.04110 | 8.59096 | 477 ft | 138 kts | 254° |
| 2026-04-24 19:56 | 50.03780 | 8.57723 | 370 ft | 127 kts | 253° |